createdAt,value
2022-09-23T00:04:53.670Z,3.70
2022-09-23T00:09:58.851Z,3.92
2022-09-23T00:15:02.427Z,6.40
2022-09-23T00:20:06.767Z,4.70
2022-09-23T00:25:13.088Z,3.95
2022-09-23T00:30:16.614Z,5.35
2022-09-23T00:35:20.408Z,4.32
2022-09-23T00:40:25.660Z,4.55
2022-09-23T00:45:30.487Z,5.38
2022-09-23T00:55:43.279Z,3.67
2022-09-23T01:00:46.943Z,5.45
2022-09-23T01:05:50.934Z,3.00
2022-09-23T01:11:05.329Z,3.97
2022-09-23T01:16:16.725Z,3.70
2022-09-23T01:21:31.223Z,4.18
2022-09-23T01:27:06.431Z,4.00
2022-09-23T01:32:18.874Z,6.18
2022-09-23T01:37:27.082Z,5.80
2022-09-23T01:42:36.975Z,6.20
2022-09-23T01:47:47.854Z,4.97
2022-09-23T01:52:56.129Z,7.10
2022-09-23T01:58:05.729Z,3.95
2022-09-23T02:03:16.225Z,5.10
2022-09-23T02:08:25.133Z,6.47
2022-09-23T02:13:32.582Z,7.35
2022-09-23T02:18:45.082Z,5.40
2022-09-23T02:23:53.140Z,3.15
2022-09-23T02:29:07.451Z,5.35
2022-09-23T02:34:33.555Z,4.90
2022-09-23T02:39:43.038Z,5.43
2022-09-23T02:44:46.646Z,4.07
2022-09-23T02:49:52.018Z,3.83
2022-09-23T02:54:55.638Z,4.50
2022-09-23T02:59:59.311Z,5.10
2022-09-23T03:05:12.286Z,3.22
2022-09-23T03:10:21.787Z,3.33
2022-09-23T03:15:34.180Z,3.50
2022-09-23T03:20:44.896Z,2.65
2022-09-23T03:25:51.030Z,3.60
2022-09-23T03:30:55.522Z,2.70
2022-09-23T03:36:05.355Z,4.23
2022-09-23T03:41:11.927Z,3.17
2022-09-23T03:46:15.523Z,2.70
2022-09-23T03:51:24.141Z,2.70
2022-09-23T03:56:27.678Z,3.03
2022-09-23T04:01:31.229Z,4.10
2022-09-23T04:06:36.585Z,5.13
2022-09-23T04:11:40.132Z,2.63
2022-09-23T04:16:43.692Z,3.15
2022-09-23T04:21:49.326Z,4.30
2022-09-23T04:26:53.845Z,2.53
2022-09-23T04:31:57.487Z,2.27
2022-09-23T04:37:03.070Z,2.88
2022-09-23T04:42:06.870Z,2.70
2022-09-23T04:47:10.409Z,2.47
2022-09-23T04:52:15.571Z,3.70
2022-09-23T04:57:19.110Z,8.25
2022-09-23T05:02:22.730Z,3.97
2022-09-23T05:07:28.579Z,3.58
2022-09-23T05:12:32.152Z,5.25
2022-09-23T05:17:35.697Z,2.97
2022-09-23T05:22:40.882Z,3.67
2022-09-23T05:27:44.425Z,2.95
2022-09-23T05:32:47.930Z,2.78
2022-09-23T05:37:53.075Z,2.55
2022-09-23T05:42:56.609Z,3.22
2022-09-23T05:48:00.152Z,3.63
2022-09-23T05:53:05.346Z,3.33
2022-09-23T05:58:08.874Z,2.95
2022-09-23T06:03:14.427Z,3.90
2022-09-23T06:08:19.766Z,4.40
2022-09-23T06:13:23.311Z,3.70
2022-09-23T06:18:26.841Z,5.00
2022-09-23T06:23:32.376Z,5.32
2022-09-23T06:28:38.039Z,5.05
2022-09-23T06:38:46.008Z,3.15
2022-09-23T06:43:49.721Z,4.10
2022-09-23T06:48:53.222Z,5.50
2022-09-23T06:53:58.428Z,2.78
2022-09-23T06:59:01.990Z,3.67
2022-09-23T07:04:05.707Z,3.75
2022-09-23T07:09:11.741Z,4.45
2022-09-23T07:14:15.568Z,5.65
2022-09-23T07:19:19.103Z,5.85
2022-09-23T07:24:25.243Z,3.63
2022-09-23T07:29:31.247Z,4.80
2022-09-23T07:34:38.609Z,6.07
2022-09-23T07:39:44.563Z,3.22
2022-09-23T07:44:48.133Z,7.53
2022-09-23T07:49:51.705Z,4.07
2022-09-23T07:54:57.867Z,3.47
2022-09-23T08:00:01.438Z,4.90
2022-09-23T08:05:05.270Z,4.93
2022-09-23T08:10:10.986Z,5.55
2022-09-23T08:20:18.181Z,4.47
2022-09-23T08:25:23.343Z,5.00
2022-09-23T08:30:27.657Z,6.10
2022-09-23T08:35:31.248Z,5.22
2022-09-23T08:40:39.771Z,4.18
2022-09-23T08:45:45.615Z,4.85
2022-09-23T08:50:54.205Z,7.85
2022-09-23T08:56:01.922Z,5.53
2022-09-23T09:01:17.322Z,5.25
2022-09-23T09:06:27.015Z,6.90
2022-09-23T09:11:36.662Z,8.95
2022-09-23T09:17:00.066Z,4.55
2022-09-23T09:22:08.391Z,7.22
2022-09-23T09:27:14.561Z,5.63
2022-09-23T09:32:26.558Z,6.50
2022-09-23T09:37:35.296Z,4.22
2022-09-23T09:42:41.851Z,7.15
2022-09-23T09:47:52.364Z,8.68
2022-09-23T09:53:17.211Z,5.07
2022-09-23T09:58:22.628Z,8.38
2022-09-23T10:03:40.102Z,5.47
2022-09-23T10:08:49.981Z,6.60
2022-09-23T10:14:06.529Z,6.97
2022-09-23T10:19:18.133Z,5.75
2022-09-23T10:24:24.127Z,7.15
2022-09-23T10:29:33.808Z,6.47
2022-09-23T10:34:37.323Z,6.15
2022-09-23T10:39:41.599Z,7.88
2022-09-23T10:45:02.325Z,7.07
2022-09-23T10:50:36.329Z,8.60
2022-09-23T10:56:05.367Z,7.10
2022-09-23T11:01:27.956Z,6.97
2022-09-23T11:06:38.296Z,6.50
2022-09-23T11:11:52.956Z,6.13
2022-09-23T11:17:27.982Z,7.40
2022-09-23T11:22:50.479Z,5.70
2022-09-23T11:28:18.653Z,6.20
2022-09-23T11:33:42.450Z,6.40
2022-09-23T11:38:50.395Z,6.93
2022-09-23T11:44:00.123Z,6.57
2022-09-23T11:49:13.079Z,6.15
2022-09-23T11:54:21.461Z,7.25
2022-09-23T11:59:40.001Z,6.50
2022-09-23T12:04:57.214Z,7.55
2022-09-23T12:10:06.134Z,4.80
2022-09-23T12:15:18.346Z,6.40
2022-09-23T12:20:51.229Z,6.88
2022-09-23T12:25:56.798Z,9.70
2022-09-23T12:31:02.833Z,9.10
2022-09-23T12:36:10.566Z,6.85
2022-09-23T12:41:24.968Z,8.23
2022-09-23T12:46:28.931Z,6.50
2022-09-23T12:51:34.863Z,4.88
2022-09-23T13:02:29.508Z,7.83
2022-09-23T13:07:34.972Z,5.88
2022-09-23T13:12:43.438Z,7.15
2022-09-23T13:17:47.028Z,6.20
2022-09-23T13:23:22.493Z,6.07
2022-09-23T13:28:34.003Z,6.38
2022-09-23T13:33:43.562Z,11.40
2022-09-23T13:38:48.760Z,8.25
2022-09-23T13:43:55.398Z,5.40
2022-09-23T13:48:59.438Z,6.72
2022-09-23T13:54:05.910Z,6.55
2022-09-23T13:59:23.465Z,5.68
2022-09-23T14:04:27.462Z,6.93
2022-09-23T14:09:34.578Z,5.90
2022-09-23T14:14:41.507Z,6.93
2022-09-23T14:19:45.346Z,7.28
2022-09-23T14:24:51.119Z,6.25
2022-09-23T14:29:55.088Z,6.38
2022-09-23T14:35:18.597Z,6.95
2022-09-23T14:40:26.617Z,7.80
2022-09-23T14:45:34.539Z,8.90
2022-09-23T14:50:38.462Z,6.75
2022-09-23T14:55:44.784Z,6.85
2022-09-23T15:00:54.110Z,6.93
2022-09-23T15:06:01.615Z,9.70
2022-09-23T15:11:09.574Z,7.18
2022-09-23T15:16:15.238Z,5.50
2022-09-23T15:21:20.823Z,6.80
2022-09-23T15:26:40.467Z,6.60
2022-09-23T15:31:44.050Z,11.82
2022-09-23T15:36:47.979Z,6.32
2022-09-23T15:41:53.421Z,5.90
2022-09-23T15:46:58.559Z,7.63
2022-09-23T15:52:04.085Z,7.82
2022-09-23T16:02:20.607Z,7.53
2022-09-23T16:07:24.139Z,7.28
2022-09-23T16:12:29.339Z,14.38
2022-09-23T16:17:32.860Z,11.40
2022-09-23T16:22:36.752Z,12.07
2022-09-23T16:27:41.951Z,13.07
2022-09-23T16:32:51.760Z,12.32
2022-09-23T16:37:55.488Z,14.20
2022-09-23T16:43:00.660Z,17.40
2022-09-23T16:53:07.169Z,12.60
2022-09-23T16:58:12.521Z,11.40
2022-09-23T17:03:16.076Z,10.50
2022-09-23T17:08:19.761Z,6.65
2022-09-23T17:13:25.026Z,6.50
2022-09-23T17:18:28.787Z,10.05
2022-09-23T17:23:33.286Z,12.35
2022-09-23T17:28:38.478Z,10.18
2022-09-23T17:33:42.010Z,9.90
2022-09-23T17:38:46.190Z,8.90
2022-09-23T17:43:55.344Z,12.50
2022-09-23T17:48:59.262Z,9.60
2022-09-23T17:54:02.807Z,8.00
2022-09-23T17:59:10.695Z,9.15
2022-09-23T18:04:14.322Z,8.35
2022-09-23T18:09:18.220Z,7.63
2022-09-23T18:14:23.964Z,8.73
2022-09-23T18:19:27.529Z,7.03
2022-09-23T18:24:33.091Z,9.90
2022-09-23T18:29:38.874Z,9.68
2022-09-23T18:34:42.428Z,7.80
2022-09-23T18:39:45.977Z,7.63
2022-09-23T18:44:51.206Z,8.07
2022-09-23T18:49:54.733Z,8.48
2022-09-23T18:54:58.259Z,7.28
2022-09-23T19:00:03.989Z,7.68
2022-09-23T19:05:08.482Z,5.97
2022-09-23T19:15:16.653Z,4.22
2022-09-23T19:20:20.156Z,6.65
2022-09-23T19:25:23.684Z,4.97
2022-09-23T19:30:28.865Z,5.72
2022-09-23T19:35:32.436Z,5.43
2022-09-23T19:40:36.477Z,4.33
2022-09-23T19:45:41.772Z,5.82
2022-09-23T19:50:47.927Z,6.60
2022-09-23T19:55:51.450Z,5.95
2022-09-23T20:00:56.672Z,7.60
2022-09-23T20:06:00.275Z,6.28
2022-09-23T20:11:08.462Z,5.53
2022-09-23T20:16:15.780Z,5.72
2022-09-23T20:21:19.502Z,5.13
2022-09-23T20:26:23.087Z,3.97
2022-09-23T20:31:28.977Z,5.63
2022-09-23T20:36:32.607Z,5.03
2022-09-23T20:41:37.766Z,4.60
2022-09-23T20:46:47.935Z,3.47
2022-09-23T20:51:52.281Z,4.40
2022-09-23T20:56:55.806Z,5.30
2022-09-23T21:02:03.213Z,5.50
2022-09-23T21:07:06.791Z,5.03
2022-09-23T21:12:10.305Z,4.53
2022-09-23T21:17:15.470Z,4.10
2022-09-23T21:22:19.010Z,4.05
2022-09-23T21:27:22.516Z,4.00
2022-09-23T21:32:27.691Z,4.77
2022-09-23T21:37:31.227Z,3.20
2022-09-23T21:42:34.742Z,5.13
2022-09-23T21:47:40.876Z,4.10
2022-09-23T21:52:44.492Z,3.90
2022-09-23T21:57:48.040Z,3.33
2022-09-23T22:02:53.211Z,4.87
2022-09-23T22:07:56.758Z,5.03
2022-09-23T22:13:00.300Z,6.23
2022-09-23T22:18:05.652Z,5.10
2022-09-23T22:23:09.154Z,4.07
2022-09-23T22:28:12.694Z,4.23
2022-09-23T22:33:19.242Z,4.25
2022-09-23T22:38:22.767Z,3.08
2022-09-23T22:43:26.336Z,3.53
2022-09-23T22:48:31.831Z,5.60
2022-09-23T22:53:35.349Z,5.05
2022-09-23T22:58:38.865Z,4.20
2022-09-23T23:03:44.049Z,5.82
2022-09-23T23:08:47.613Z,4.82
2022-09-23T23:13:51.463Z,4.45
2022-09-23T23:18:56.708Z,4.65
2022-09-23T23:24:00.698Z,3.97
2022-09-23T23:34:11.601Z,4.85
2022-09-23T23:39:15.514Z,5.10
2022-09-23T23:44:19.033Z,4.65
2022-09-23T23:49:24.218Z,4.23
2022-09-23T23:54:27.887Z,4.45
2022-09-23T23:59:31.459Z,5.15
